Weather observations for the past three days for
Sampson County Airport
| Date | Time (edt) | Wind (mph) | Vis. (mi.) | Weather | Sky Cond. | Temperature (ºF) | Relative Humidity | Wind Chill (°F) | Heat Index (°F) | Pressure | Precipitation (in) | ||||||
|---|---|---|---|---|---|---|---|---|---|---|---|---|---|---|---|---|---|
| Air | Dwpt | 6 hour | altimeter (in) | sea level (mb) | 1 hr | 3 hr | 6 hr | ||||||||||
| Max. | Min. | ||||||||||||||||
| 04 | 01:15 | Calm | 10.00 | Fair | CLR | 50.5 | 48.2 | 92% | 30.09 | 0.0 | |||||||
| 04 | 00:55 | Calm | 10.00 | Fair | CLR | 50.9 | 47.8 | 89% | 30.08 | 0.0 | |||||||
| 04 | 00:35 | Calm | 10.00 | Fair | CLR | 51.8 | 47.5 | 85% | 30.08 | 0.0 | |||||||
| 04 | 00:15 | Calm | 10.00 | Fair | CLR | 52 | 47.1 | 84% | 30.08 | 0.0 | |||||||
| 03 | 23:55 | Calm | 10.00 | Fair | CLR | 54.1 | 47.1 | 77% | 30.08 | 0.0 | |||||||
| 03 | 23:35 | SW 3 | 10.00 | Fair | CLR | 53.2 | 48 | 83% | 30.08 | 0.0 | |||||||
| 03 | 23:15 | Calm | 10.00 | Fair | CLR | 48.7 | 48.7 | 100% | 30.08 | 0.0 | |||||||
| 03 | 22:55 | Calm | 10.00 | Fair | CLR | 48.7 | 48.7 | 100% | 30.08 | 0.0 | |||||||
| 03 | 22:35 | Calm | 10.00 | Fair | CLR | 50.2 | 48.9 | 95% | 30.08 | 0.0 | |||||||
| 03 | 22:15 | Calm | 10.00 | Fair | CLR | 50.2 | 48.4 | 94% | 30.08 | 0.0 | |||||||
| 03 | 21:55 | Calm | 10.00 | Fair | CLR | 51.1 | 48.2 | 90% | 30.07 | 0.0 | |||||||
| 03 | 21:35 | Calm | 10.00 | Fair | CLR | 52.2 | 48 | 86% | 30.06 | 0.0 | |||||||
| 03 | 21:15 | Calm | 10.00 | Fair | CLR | 52.3 | 48 | 85% | 30.06 | 0.0 | |||||||
| 03 | 20:55 | Calm | 10.00 | Fair | CLR | 54.7 | 47.1 | 76% | 30.04 | 0.0 | |||||||
| 03 | 20:35 | Calm | 10.00 | Fair | CLR | 55 | 48 | 77% | 30.04 | 0.0 | |||||||
| 03 | 20:15 | Calm | 10.00 | Fair | CLR | 57.2 | 48.7 | 74% | 30.03 | 0.0 | |||||||
| 03 | 19:55 | Calm | 10.00 | Fair | CLR | 59.7 | 45.1 | 68.5 | 59.7 | 59% | 30.03 | 0.0 | |||||
| 03 | 19:35 | Calm | 10.00 | Fair | CLR | 64.8 | 44.8 | 49% | 30.02 | 0.0 | |||||||
| 03 | 19:15 | Calm | 10.00 | Fair | CLR | 66.9 | 37.9 | 35% | 30.02 | 0.0 | |||||||
| 03 | 18:55 | Calm | 10.00 | Fair | CLR | 67.5 | 38.5 | 35% | 30.02 | 0.0 | |||||||
| 03 | 18:35 | NW 3 | 10.00 | Fair | CLR | 67.6 | 37.8 | 33% | 30.02 | 0.0 | |||||||
| 03 | 18:15 | SW 5 | 10.00 | Fair | CLR | 68.2 | 37.8 | 33% | 30.02 | 0.0 | |||||||
| 03 | 17:55 | NW 3 | 10.00 | Fair | CLR | 68 | 36.5 | 31% | 30.02 | 0.0 | |||||||
| 03 | 17:35 | NW 7 | 10.00 | Fair | CLR | 68.2 | 37.2 | 32% | 30.02 | 0.0 | |||||||
| 03 | 17:15 | NW 7 | 10.00 | Fair | CLR | 68 | 36.5 | 31% | 30.02 | 0.0 | |||||||
| 03 | 16:55 | W 8 | 10.00 | Fair | CLR | 68.4 | 36.5 | 31% | 30.03 | 0.0 | |||||||
| 03 | 16:35 | N 6 | 10.00 | Fair | CLR | 67.6 | 36.5 | 32% | 30.03 | 0.0 | |||||||
| 03 | 16:15 | NW 7 | 10.00 | Fair | CLR | 68.2 | 37.6 | 33% | 30.03 | 0.0 | |||||||
| 03 | 15:55 | NW 8 | 10.00 | Fair | CLR | 66.9 | 36.5 | 33% | 30.04 | 0.0 | |||||||
| 03 | 15:35 | NW 9 | 10.00 | Fair | CLR | 66.4 | 38.3 | 36% | 30.05 | 0.0 | |||||||
| 03 | 15:15 | NW 8 | 10.00 | Fair | CLR | 66.6 | 37.9 | 35% | 30.06 | 0.0 | |||||||
| 03 | 14:35 | NW 10 | 10.00 | Fair | CLR | 65.8 | 39 | 37% | 30.07 | 0.0 | |||||||
| 03 | 14:15 | W 9 G 17 | 10.00 | Fair | CLR | 64.9 | 38.7 | 38% | 30.08 | 0.0 | |||||||
| 03 | 13:55 | NW 10 G 17 | 10.00 | Fair | CLR | 63.9 | 38.7 | 64 | 46.4 | 40% | 30.09 | 0.0 | |||||
| 03 | 13:35 | W 9 | 10.00 | Fair | CLR | 63.1 | 38.1 | 40% | 30.09 | 0.0 | |||||||
| 03 | 13:15 | W 9 | 10.00 | Fair | CLR | 63.3 | 39 | 41% | 30.1 | 0.0 | |||||||
| 03 | 12:55 | NW 9 G 16 | 10.00 | Fair | CLR | 62.2 | 38.1 | 41% | 30.11 | 0.0 | |||||||
| 03 | 12:35 | NW 9 | 10.00 | Fair | CLR | 61.3 | 37.6 | 41% | 30.11 | 0.0 | |||||||
| 03 | 12:15 | W 12 G 17 | 10.00 | Fair | CLR | 60.8 | 37 | 41% | 30.11 | 0.0 | |||||||
| 03 | 11:55 | NW 9 | 10.00 | Fair | CLR | 59.9 | 36.5 | 42% | 30.12 | 0.0 | |||||||
| 03 | 11:35 | N 6 | 10.00 | Fair | CLR | 59.4 | 35.8 | 41% | 30.13 | 0.0 | |||||||
| 03 | 11:15 | N 13 G 17 | 10.00 | Fair | CLR | 59.2 | 34.9 | 40% | 30.12 | 0.0 | |||||||
| 03 | 10:55 | N 7 | 10.00 | Fair | CLR | 58.6 | 36.1 | 43% | 30.12 | 0.0 | |||||||
| 03 | 10:35 | NW 9 | 10.00 | Fair | CLR | 57.4 | 34.7 | 43% | 30.12 | 0.0 | |||||||
| 03 | 10:15 | NW 10 | 10.00 | Fair | CLR | 56.7 | 36.5 | 47% | 30.12 | 0.0 | |||||||
| 03 | 09:55 | N 9 | 10.00 | Fair | CLR | 56.3 | 39.7 | 54% | 30.12 | 0.0 | |||||||
| 03 | 09:35 | NW 6 | 10.00 | Fair | CLR | 54.5 | 42.1 | 63% | 30.12 | 0.0 | |||||||
| 03 | 09:15 | NW 5 | 10.00 | Fair | CLR | 52.9 | 44.2 | 73% | 30.12 | 0.0 | |||||||
| 03 | 08:35 | NW 3 | 10.00 | Fair | CLR | 49.3 | 46 | 89% | 30.11 | 0.0 | |||||||
| 03 | 08:15 | W 3 | 10.00 | Fair | CLR | 48 | 46 | 93% | 30.11 | 0.0 | |||||||
| 03 | 07:55 | NW 3 | 10.00 | Fair | CLR | 46 | 45.5 | 47.7 | 41.9 | 98% | 30.1 | 0.0 | 0.01 | ||||
| 03 | 07:35 | Calm | 10.00 | Fair | CLR | 44.2 | 44.2 | 100% | 30.09 | 0.0 | |||||||
| 03 | 07:15 | Calm | 10.00 | Fair | CLR | 43.7 | 43.7 | 100% | 30.08 | 0.0 | |||||||
| 03 | 06:55 | Calm | 10.00 | Fair | CLR | 42.3 | 42.3 | 100% | 30.07 | 0.0 | |||||||
| 03 | 06:35 | Calm | 10.00 | Fair | CLR | 41.9 | 41.9 | 100% | 30.06 | 0.0 | |||||||
| 03 | 06:15 | Calm | 10.00 | Fair | CLR | 43.3 | 43.3 | 100% | 30.05 | 0.0 | |||||||
| 03 | 05:55 | Calm | 10.00 | Fair | CLR | 43.7 | 43.7 | 100% | 30.04 | 0.0 | |||||||
| 03 | 05:35 | Calm | 10.00 | Fair | CLR | 43.9 | 43.9 | 100% | 30.03 | 0.0 | |||||||
| 03 | 05:15 | Calm | 10.00 | Fair | CLR | 44.6 | 44.6 | 100% | 30.03 | 0.0 | |||||||
| 03 | 04:55 | Calm | 10.00 | Fair | CLR | 45 | 45 | 100% | 30.03 | 0.0 | 0.01 | ||||||
| 03 | 04:35 | Calm | 10.00 | Fair | CLR | 45.5 | 45.5 | 100% | 30.02 | 0.0 | |||||||
| 03 | 04:15 | Calm | 10.00 | Fair | CLR | 46 | 46 | 100% | 30.02 | 0.0 | |||||||
| 03 | 03:55 | Calm | 10.00 | Fair | CLR | 46.4 | 46.4 | 100% | 30.01 | 0.0 | 0.01 | ||||||
| 03 | 03:35 | Calm | 10.00 | Fair | CLR | 46.4 | 46.4 | 100% | 30.01 | 0.0 | |||||||
| 03 | 03:15 | Calm | 7.00 | Fair | CLR | 46.9 | 46.9 | 100% | 30 | 0.0 | |||||||
| 03 | 02:55 | Calm | 7.00 | Fair | CLR | 47.7 | 47.7 | 100% | 29.99 | 0.0 | |||||||
| 03 | 02:35 | Calm | 5.00 | Fair | CLR | 47.5 | 47.5 | 100% | 29.98 | 0.0 | |||||||
| 03 | 02:15 | Calm | 3.00 | Fair | CLR | 46.8 | 46.8 | 100% | 29.98 | 0.0 | |||||||
| 03 | 01:55 | Calm | 1.25 | Sky Obscured | VV007 | 46.4 | 46.4 | 52.7 | 46.4 | 100% | 29.98 | 0.0 | |||||
| 03 | 01:35 | Calm | 3.00 | Fair | CLR | 47.1 | 47.1 | 100% | 29.99 | 0.0 | |||||||
| 03 | 01:15 | Calm | 5.00 | Fair | CLR | 48.2 | 48.2 | 100% | 29.98 | 0.0 | |||||||
| 03 | 00:55 | Calm | 7.00 | Fair | CLR | 48.6 | 48.6 | 100% | 29.98 | 0.0 | |||||||
| 03 | 00:35 | Calm | 5.00 | Fair | CLR | 48.7 | 48.7 | 100% | 29.98 | 0.0 | |||||||
| 03 | 00:15 | Calm | 4.00 | Fair | CLR | 49.1 | 49.1 | 100% | 29.97 | 0.0 | |||||||
| 02 | 23:55 | Calm | 1.75 | Sky Obscured | VV007 | 49.5 | 49.5 | 100% | 29.96 | 0.0 | |||||||
| 02 | 23:35 | Calm | 5.00 | Fair | CLR | 50.2 | 50.2 | 100% | 29.96 | 0.0 | |||||||
| 02 | 23:15 | Calm | 7.00 | Fair | CLR | 50.9 | 50.9 | 100% | 29.96 | 0.0 | |||||||
| 02 | 22:55 | Calm | 10.00 | Fair | CLR | 51.1 | 51.1 | 100% | 29.95 | 0.0 | |||||||
| 02 | 22:35 | Calm | 10.00 | Partly Cloudy | SCT120 | 51.1 | 51.1 | 100% | 29.97 | 0.0 | |||||||
| 02 | 22:15 | Calm | 10.00 | Mostly Cloudy | BKN120 | 51.3 | 51.3 | 100% | 29.96 | 0.0 | |||||||
| 02 | 21:55 | Calm | 10.00 | Fair | CLR | 51.4 | 51.4 | 100% | 29.95 | 0.0 | |||||||
| 02 | 21:35 | Calm | 10.00 | Partly Cloudy | SCT120 | 51.8 | 51.8 | 100% | 29.94 | 0.0 | |||||||
| 02 | 21:15 | Calm | 10.00 | Partly Cloudy | SCT110 | 51.8 | 51.8 | 100% | 29.93 | 0.0 | |||||||
| 02 | 20:55 | Calm | 10.00 | Mostly Cloudy | SCT075 BKN110 | 52 | 52 | 100% | 29.93 | 0.0 | |||||||
| 02 | 20:35 | Calm | 10.00 | Mostly Cloudy | SCT075 BKN110 | 52.2 | 52.2 | 100% | 29.92 | 0.0 | |||||||
| 02 | 20:15 | Calm | 10.00 | Mostly Cloudy | SCT009 BKN110 | 52.3 | 52.3 | 100% | 29.91 | 0.0 | |||||||
| 02 | 19:55 | N 6 | 10.00 | Overcast | SCT009 SCT075 OVC100 | 52.9 | 52.9 | 54.9 | 52.9 | 100% | 29.9 | 0.0 | 0.01 | 0.08 | |||
| 02 | 19:35 | NE 3 | 10.00 | Overcast | SCT019 OVC075 | 52.9 | 52.9 | 100% | 29.9 | 0.0 | 0.01 | ||||||
| 02 | 19:15 | Calm | 7.00 | Mostly Cloudy | BKN019 BKN042 BKN075 | 53.1 | 53.1 | 100% | 29.9 | 0.0 | 0.01 | ||||||
| 02 | 18:55 | N 3 | 4.00 | Mostly Cloudy | SCT009 BKN019 BKN040 | 53.4 | 53.4 | 100% | 29.89 | 0.0 | |||||||
| 02 | 18:35 | N 3 | 10.00 | Overcast | SCT011 SCT015 OVC020 | 53.2 | 53.2 | 100% | 29.9 | 0.0 | |||||||
| 02 | 18:15 | N 3 | 10.00 | Overcast | SCT011 OVC020 | 53.2 | 53.2 | 100% | 29.89 | 0.0 | |||||||
| 02 | 17:55 | N 5 | 7.00 | Overcast | SCT007 BKN011 OVC021 | 53.2 | 53.2 | 100% | 29.88 | 0.0 | |||||||
| 02 | 17:35 | N 3 | 5.00 | Overcast | BKN007 OVC017 | 53.1 | 53.1 | 100% | 29.89 | 0.0 | |||||||
| 02 | 17:15 | N 5 | 4.00 | Overcast | SCT007 OVC017 | 53.4 | 53.4 | 100% | 29.88 | 0.0 | |||||||
| 02 | 16:55 | N 6 | 10.00 | Overcast | SCT009 OVC015 | 53.2 | 53.2 | 100% | 29.88 | 0.0 | 0.07 | ||||||
| 02 | 16:35 | N 5 | 10.00 | Overcast | OVC009 | 53.2 | 53.2 | 100% | 29.88 | 0.0 | |||||||
| 02 | 16:15 | N 6 | 10.00 | Overcast | BKN009 OVC013 | 53.2 | 53.2 | 100% | 29.88 | 0.0 | |||||||
| 02 | 15:55 | N 6 | 10.00 | Overcast | BKN007 OVC013 | 53.8 | 53.8 | 100% | 29.88 | 0.0 | 0.01 | ||||||
| 02 | 15:35 | N 7 | 10.00 | Overcast | BKN007 OVC011 | 53.8 | 53.8 | 100% | 29.88 | 0.0 | 0.01 | ||||||
| 02 | 15:15 | NE 6 | 5.00 | Overcast | SCT007 OVC013 | 54 | 54 | 100% | 29.88 | 0.0 | 0.01 | ||||||
| 02 | 14:55 | NE 6 | 4.00 | Overcast | BKN007 OVC013 | 53.6 | 53.6 | 100% | 29.89 | 0.0 | 0.06 | ||||||
| 02 | 14:35 | N 8 | 4.00 | Mostly Cloudy | BKN007 BKN014 | 53.6 | 53.6 | 100% | 29.89 | 0.0 | 0.05 | ||||||
| 02 | 14:15 | N 7 | 3.00 | Overcast | SCT006 OVC009 | 54 | 54 | 100% | 29.9 | 0.0 | 0.02 | ||||||
| 02 | 13:55 | N 8 | 3.00 | NULL | NULL | 54.9 | 54.9 | 55.4 | 54.1 | 100% | 29.89 | 0.0 | 0.06 | 0.39 | |||
| 02 | 13:35 | N 5 | 2.50 | Overcast | OVC008 | 55.4 | 55.4 | 100% | 29.9 | 0.0 | 0.04 | ||||||
| 02 | 13:15 | N 5 | 7.00 | Overcast | BKN006 OVC012 | 54.9 | 54.9 | 100% | 29.9 | 0.0 | 0.01 | ||||||
| 02 | 12:55 | N 6 | 5.00 | Mostly Cloudy | SCT006 BKN010 BKN060 | 54.9 | 54.9 | 100% | 29.89 | 0.0 | 0.09 | ||||||
| 02 | 12:35 | N 8 | 2.50 | NULL | NULL | 54.9 | 54.9 | 100% | 29.91 | 0.0 | 0.08 | ||||||
| 02 | 12:15 | N 6 | 1.75 | Sky Obscured | VV007 | 54.7 | 54.7 | 100% | 29.93 | 0.0 | 0.04 | ||||||
| 02 | 11:55 | N 5 | 1.75 | Mostly Cloudy | SCT006 BKN012 | 54.7 | 54.7 | 100% | 29.93 | 0.0 | 0.06 | ||||||
| 02 | 11:35 | N 7 | 4.00 | Mostly Cloudy | BKN008 BKN012 | 55 | 55 | 100% | 29.92 | 0.0 | 0.02 | ||||||
| 02 | 11:15 | NE 3 | 5.00 | Mostly Cloudy | BKN008 BKN013 BKN090 | 54.9 | 54.9 | 100% | 29.92 | 0.0 | 0.01 | ||||||
| 02 | 10:55 | NE 5 | 3.00 | NULL | NULL | 54.7 | 54.7 | 100% | 29.92 | 0.0 | 0.1 | 0.18 | |||||
| 02 | 10:35 | N 5 | 2.00 | NULL | NULL | 54.3 | 54.3 | 100% | 29.93 | 0.0 | 0.07 | ||||||
| 02 | 10:15 | N 5 | 2.50 | NULL | NULL | 54.1 | 54.1 | 100% | 29.92 | 0.0 | 0.02 | ||||||
| 02 | 09:55 | NE 7 | 3.00 | NULL | NULL | 54.3 | 54.3 | 100% | 29.9 | 0.0 | 0.04 | ||||||
| 02 | 09:35 | NE 6 | 4.00 | Mostly Cloudy | BKN065 | 54.5 | 54.5 | 100% | 29.9 | 0.0 | 0.02 | ||||||
| 02 | 09:15 | N 5 | 4.00 | Mostly Cloudy | BKN065 | 54.5 | 54.5 | 100% | 29.9 | 0.0 | 0.01 | ||||||
| 02 | 08:55 | N 5 | 4.00 | Mostly Cloudy | BKN065 BKN080 | 54.5 | 54.5 | 100% | 29.9 | 0.0 | 0.03 | ||||||
| 02 | 08:35 | N 3 | 5.00 | Overcast | BKN065 BKN080 OVC090 | 54.7 | 54.7 | 100% | 29.9 | 0.0 | 0.01 | ||||||
| 02 | 08:15 | N 3 | 7.00 | Mostly Cloudy | SCT065 BKN090 | 54.7 | 54.7 | 100% | 29.9 | 0.0 | |||||||
| 02 | 07:55 | N 3 | 5.00 | Partly Cloudy | SCT090 | 54.7 | 54.7 | 55.8 | 54.5 | 100% | 29.9 | 0.0 | 0.04 | 0.11 | |||
| 02 | 07:35 | Calm | 4.00 | Partly Cloudy | SCT030 SCT040 | 54.5 | 54.5 | 100% | 29.9 | 0.0 | 0.03 | ||||||
| 02 | 07:15 | Calm | 3.00 | NULL | NULL | 54.5 | 54.5 | 100% | 29.9 | 0.0 | 0.02 | ||||||
| 02 | 06:55 | Calm | 4.00 | Mostly Cloudy | SCT019 SCT034 BKN080 | 54.5 | 54.5 | 100% | 29.9 | 0.0 | 0.04 | ||||||
| 02 | 06:35 | Calm | 7.00 | Overcast | BKN019 BKN080 OVC090 | 54.5 | 54.5 | 100% | 29.9 | 0.0 | 0.02 | ||||||
| 02 | 06:15 | Calm | 7.00 | Overcast | SCT014 SCT075 OVC085 | 54.5 | 54.5 | 100% | 29.89 | 0.0 | 0.01 | ||||||
| 02 | 05:55 | Calm | 7.00 | Mostly Cloudy | SCT014 SCT035 BKN085 | 54.9 | 54.9 | 100% | 29.89 | 0.0 | 0.03 | ||||||
| 02 | 05:35 | Calm | 5.00 | Mostly Cloudy | SCT017 SCT028 BKN039 | 55.4 | 55.4 | 100% | 29.89 | 0.0 | 0.02 | ||||||
| 02 | 05:15 | Calm | 7.00 | Overcast | SCT017 BKN024 OVC080 | 55.6 | 55.6 | 100% | 29.89 | 0.0 | 0.01 | ||||||
| 02 | 04:55 | Calm | 7.00 | Overcast | SCT020 BKN042 OVC080 | 55.6 | 55.6 | 100% | 29.89 | 0.0 | |||||||
| 02 | 04:35 | Calm | 10.00 | Overcast | SCT013 BKN028 OVC100 | 55.8 | 55.8 | 100% | 29.88 | 0.0 | |||||||
| 02 | 04:15 | Calm | 10.00 | Overcast | OVC013 | 55.8 | 55.8 | 100% | 29.88 | 0.0 | |||||||
| 02 | 03:55 | Calm | 10.00 | Overcast | OVC013 | 55.6 | 55.6 | 100% | 29.88 | 0.0 | |||||||
| 02 | 03:15 | Calm | 10.00 | Overcast | OVC015 | 55.6 | 55.6 | 100% | 29.88 | 0.0 | |||||||
| 02 | 02:55 | Calm | 10.00 | Overcast | SCT015 OVC120 | 55.6 | 55.6 | 100% | 29.88 | 0.0 | |||||||
| 02 | 02:35 | Calm | 10.00 | Mostly Cloudy | BKN120 | 55.4 | 55.4 | 100% | 29.88 | 0.0 | |||||||
| 02 | 02:15 | Calm | 10.00 | Partly Cloudy | SCT120 | 55.4 | 55.4 | 100% | 29.89 | 0.0 | |||||||
| 02 | 01:55 | Calm | 10.00 | Fair | CLR | 55.4 | 55.4 | 59.2 | 54.7 | 100% | 29.9 | 0.0 | |||||
| 02 | 01:35 | Calm | 10.00 | Fair | CLR | 55.4 | 55.4 | 100% | 29.9 | 0.0 | |||||||
| 02 | 01:15 | Calm | 10.00 | Mostly Cloudy | SCT024 SCT031 BKN041 | 55 | 55 | 100% | 29.9 | 0.0 | |||||||
| 02 | 00:55 | Calm | 10.00 | Overcast | SCT019 BKN024 OVC043 | 55.4 | 55.4 | 100% | 29.91 | 0.0 | |||||||
| 02 | 00:35 | Calm | 10.00 | Mostly Cloudy | SCT024 BKN048 BKN055 | 55.2 | 55.2 | 100% | 29.92 | 0.0 | |||||||
| 02 | 00:15 | Calm | 10.00 | Partly Cloudy | SCT049 SCT055 | 55.6 | 55.6 | 100% | 29.91 | 0.0 | |||||||
| 01 | 23:55 | Calm | 10.00 | Partly Cloudy | SCT044 SCT050 | 55.8 | 55.6 | 99% | 29.92 | 0.0 | |||||||
| 01 | 23:35 | Calm | 10.00 | Partly Cloudy | SCT044 SCT050 SCT065 | 55.6 | 55.6 | 100% | 29.93 | 0.0 | |||||||
| 01 | 23:15 | Calm | 10.00 | Partly Cloudy | SCT044 SCT050 | 55.4 | 55.4 | 100% | 29.93 | 0.0 | |||||||
| 01 | 22:55 | Calm | 10.00 | Fair | CLR | 55.2 | 55.2 | 100% | 29.93 | 0.0 | |||||||
| 01 | 22:35 | Calm | 10.00 | Partly Cloudy | SCT050 | 55.4 | 55 | 99% | 29.93 | 0.0 | |||||||
| 01 | 22:15 | Calm | 10.00 | Partly Cloudy | SCT055 | 55.4 | 55.4 | 100% | 29.94 | 0.0 | |||||||
| 01 | 21:55 | Calm | 10.00 | Fair | CLR | 56.1 | 54.9 | 96% | 29.94 | 0.0 | |||||||
| 01 | 21:35 | Calm | 10.00 | Fair | CLR | 56.5 | 54.3 | 93% | 29.93 | 0.0 | |||||||
| 01 | 21:15 | Calm | 10.00 | Fair | CLR | 57.2 | 54.5 | 91% | 29.93 | 0.0 | |||||||
| 01 | 20:55 | Calm | 10.00 | Fair | CLR | 57.6 | 54.5 | 90% | 29.93 | 0.0 | |||||||
| 01 | 20:35 | Calm | 10.00 | Fair | CLR | 57.6 | 54.5 | 90% | 29.93 | 0.0 | |||||||
| 01 | 20:15 | Calm | 10.00 | Fair | CLR | 58.3 | 54.5 | 87% | 29.91 | 0.0 | |||||||
| 01 | 19:55 | N 3 | 10.00 | Partly Cloudy | SCT070 | 59.2 | 54.3 | 66.6 | 59.2 | 84% | 29.91 | 0.0 | |||||
| 01 | 19:35 | N 3 | 10.00 | Partly Cloudy | SCT070 | 60.4 | 54.3 | 80% | 29.92 | 0.0 | |||||||
| 01 | 19:15 | Calm | 10.00 | Partly Cloudy | SCT070 | 61.3 | 54.5 | 78% | 29.92 | 0.0 | |||||||
| 01 | 18:55 | N 3 | 10.00 | Mostly Cloudy | SCT035 BKN070 | 62.1 | 53.8 | 74% | 29.92 | 0.0 | |||||||
| 01 | 18:35 | NW 3 | 10.00 | Overcast | OVC035 | 64.6 | 53.4 | 67% | 29.93 | 0.0 | |||||||
| 01 | 18:15 | Calm | 10.00 | Mostly Cloudy | BKN035 | 65.1 | 52.5 | 64% | 29.93 | 0.0 | |||||||
| 01 | 17:55 | Calm | 10.00 | Partly Cloudy | SCT036 | 65.3 | 52.2 | 63% | 29.93 | 0.0 | |||||||
| 01 | 17:35 | Calm | 10.00 | Partly Cloudy | SCT036 SCT120 | 65.5 | 51.8 | 61% | 29.92 | 0.0 | |||||||
| 01 | 17:15 | Calm | 7.00 | Fair | CLR | 65.3 | 51.3 | 61% | 29.93 | 0.0 | |||||||
| 01 | 16:55 | E 5 | 10.00 | Fair | CLR | 66.6 | 51.6 | 59% | 29.93 | 0.0 | |||||||
| 01 | 16:35 | SE 3 | 10.00 | Partly Cloudy | SCT036 SCT120 | 64.9 | 50.4 | 59% | 29.93 | 0.0 | |||||||
| 01 | 16:15 | E 5 | 10.00 | Fair | CLR | 63.7 | 49.5 | 60% | 29.94 | 0.0 | |||||||
| 01 | 15:55 | NE 5 | 10.00 | Fair | CLR | 64 | 49.5 | 59% | 29.95 | 0.0 | |||||||
| 01 | 15:35 | E 3 | 10.00 | Partly Cloudy | SCT110 | 62.6 | 48.7 | 61% | 29.95 | 0.0 | |||||||
| 01 | 15:15 | Calm | 10.00 | Partly Cloudy | SCT110 | 62.8 | 48.7 | 60% | 29.96 | 0.0 | |||||||
| 01 | 14:55 | E 5 | 10.00 | Overcast | SCT060 OVC110 | 62.1 | 48.4 | 61% | 29.97 | 0.0 | |||||||
| 01 | 14:35 | E 6 | 10.00 | Overcast | OVC060 | 61 | 47.3 | 61% | 29.98 | 0.0 | |||||||
| 01 | 14:15 | Calm | 10.00 | Overcast | OVC060 | 60.3 | 46.9 | 62% | 29.98 | 0.0 | |||||||
| 01 | 13:55 | E 3 | 10.00 | Overcast | OVC060 | 60.8 | 46.8 | 61.7 | 50.5 | 60% | 29.99 | 0.0 | 0.04 | ||||
| 01 | 13:35 | E 3 | 10.00 | Overcast | BKN060 BKN075 OVC120 | 61 | 45.9 | 58% | 30 | 0.0 | |||||||
| 01 | 13:15 | E 6 | 10.00 | Overcast | SCT060 BKN075 OVC120 | 59.4 | 45.1 | 59% | 29.99 | 0.0 | |||||||
| 01 | 12:55 | NE 5 | 10.00 | Overcast | BKN060 OVC075 | 58.3 | 45 | 61% | 30 | 0.0 | |||||||
| 01 | 12:35 | E 9 | 10.00 | Overcast | BKN060 OVC075 | 56.3 | 44.8 | 65% | 30 | 0.0 | |||||||
| 01 | 12:15 | NE 6 | 10.00 | Overcast | OVC060 | 56.1 | 45.1 | 67% | 30.01 | 0.0 | |||||||
| 01 | 11:55 | NE 8 | 10.00 | Mostly Cloudy | BKN060 | 55 | 45.7 | 71% | 30.02 | 0.0 | |||||||
| 01 | 11:35 | NE 6 | 10.00 | Partly Cloudy | SCT075 SCT120 | 54.3 | 48.6 | 81% | 30.02 | 0.0 | |||||||
| 01 | 11:15 | NE 6 | 10.00 | Partly Cloudy | SCT075 SCT095 SCT120 | 53.6 | 50 | 88% | 30.02 | 0.0 | |||||||
| 01 | 10:55 | NE 7 | 10.00 | Mostly Cloudy | SCT035 SCT060 BKN095 | 52.2 | 50.4 | 94% | 30.02 | 0.0 | 0.03 | 0.04 | |||||
| 01 | 10:35 | E 5 | 3.00 | Overcast | SCT023 BKN037 OVC065 | 50.5 | 49.1 | 95% | 30.02 | 0.0 | 0.03 | ||||||
| 01 | 10:15 | N 3 | 5.00 | Mostly Cloudy | SCT040 BKN050 | 51.1 | 48.6 | 91% | 30.03 | 0.0 | |||||||
| 01 | 09:55 | N 5 | 3.00 | Overcast | BKN049 OVC055 | 53.6 | 42.6 | 67% | 30.04 | 0.0 | 0.01 | ||||||
| 01 | 09:35 | NE 6 | 10.00 | Overcast | BKN049 OVC055 | 55.9 | 39.6 | 54% | 30.01 | 0.0 | |||||||
| 01 | 09:15 | NE 6 | 10.00 | Overcast | SCT049 OVC055 | 55.4 | 39.9 | 56% | 29.99 | 0.0 | |||||||
| 01 | 08:55 | E 6 | 10.00 | Overcast | SCT050 OVC065 | 56.1 | 41 | 57% | 29.99 | 0.0 | |||||||
| 01 | 08:35 | NE 5 | 10.00 | Overcast | OVC050 | 54.9 | 41.9 | 62% | 29.99 | 0.0 | |||||||
| 01 | 08:15 | NE 6 | 10.00 | Overcast | OVC050 | 55.4 | 39.6 | 55% | 29.99 | 0.0 | |||||||
| 01 | 07:55 | NE 6 | 10.00 | Overcast | OVC050 | 55.9 | 38.8 | 62.8 | 55.8 | 53% | 30 | 0.0 | |||||
| 01 | 07:35 | NE 5 | 10.00 | Overcast | OVC050 | 55.8 | 38.7 | 53% | 30 | 0.0 | |||||||
| 01 | 07:15 | NE 7 | 10.00 | Overcast | OVC050 | 55.8 | 39 | 54% | 30 | 0.0 | |||||||
| 01 | 06:55 | NE 5 | 10.00 | Overcast | OVC055 | 56.3 | 39.2 | 53% | 29.98 | 0.0 | |||||||
| 01 | 06:35 | NE 10 G 17 | 10.00 | Overcast | OVC055 | 56.3 | 40.1 | 55% | 29.98 | 0.0 | |||||||
| 01 | 06:15 | NE 10 G 17 | 10.00 | Overcast | OVC055 | 56.5 | 40.8 | 56% | 29.97 | 0.0 | |||||||
| 01 | 05:55 | NE 6 | 10.00 | Overcast | OVC055 | 56.7 | 41.2 | 56% | 29.96 | 0.0 | |||||||
| 01 | 05:35 | N 12 G 17 | 10.00 | Overcast | OVC055 | 57.2 | 41.5 | 56% | 29.97 | 0.0 | |||||||
| 01 | 05:15 | NE 8 | 10.00 | Overcast | OVC055 | 57.6 | 42.3 | 57% | 29.97 | 0.0 | |||||||
| 01 | 04:55 | NE 9 | 10.00 | Overcast | OVC055 | 58.1 | 42.8 | 57% | 29.96 | 0.0 | |||||||
| 01 | 04:35 | N 9 | 10.00 | Overcast | OVC055 | 58.3 | 43 | 57% | 29.96 | 0.0 | |||||||
| 01 | 04:15 | N 9 | 10.00 | Overcast | OVC055 | 59 | 43 | 56% | 29.95 | 0.0 | |||||||
| 01 | 03:55 | N 10 G 17 | 10.00 | Overcast | OVC055 | 59.5 | 42.8 | 54% | 29.95 | 0.0 | |||||||
| 01 | 03:35 | N 8 | 10.00 | Overcast | OVC055 | 60.1 | 43 | 53% | 29.94 | 0.0 | |||||||
| 01 | 03:15 | NE 9 | 10.00 | Overcast | OVC065 | 60.4 | 43.5 | 54% | 29.93 | 0.0 | |||||||
| 01 | 02:55 | N 8 | 10.00 | Overcast | OVC060 | 61 | 43.9 | 54% | 29.93 | 0.0 | |||||||
| 01 | 02:35 | N 9 | 10.00 | Overcast | BKN060 OVC075 | 61.7 | 44.8 | 54% | 29.93 | 0.0 | |||||||
| 01 | 02:15 | N 12 G 16 | 10.00 | Overcast | BKN060 OVC075 | 62.8 | 46.6 | 56% | 29.93 | 0.0 | |||||||
| 01 | 01:55 | N 7 | 10.00 | Overcast | BKN050 OVC075 | 62.2 | 51.4 | 65.1 | 55.4 | 68% | 29.93 | 0.0 | |||||
| 01 | 01:35 | Calm | 10.00 | Overcast | SCT039 OVC050 | 61 | 56.1 | 84% | 29.93 | 0.0 | |||||||
| Date | Time (edt) | Wind (mph) | Vis. (mi.) | Weather | Sky Cond. | Air | Dwpt | Max. | Min. | Relative Humidity | Wind Chill (°F) | Heat Index (°F) | altimeter (in) | sea level (mb) | 1 hr | 3 hr | 6 hr |
| 6 hour | |||||||||||||||||
| Temperature (ºF) | Pressure | Precipitation (in) | |||||||||||||||